sensor_id;sensor_type;location;lat;lon;timestamp;P1;durP1;ratioP1;P2;durP2;ratioP2
53939;SDS011;39850;43.324;21.916;2024-02-23T00:00:59;127.0;;;89.0;;
53939;SDS011;39850;43.324;21.916;2024-02-23T00:33:14;72.0;;;56.0;;
53939;SDS011;39850;43.324;21.916;2024-02-23T00:37:50;72.0;;;56.0;;
53939;SDS011;39850;43.324;21.916;2024-02-23T00:42:26;72.0;;;56.0;;
53939;SDS011;39850;43.324;21.916;2024-02-23T00:47:03;74.0;;;58.0;;
53939;SDS011;39850;43.324;21.916;2024-02-23T00:51:40;74.0;;;58.0;;
53939;SDS011;39850;43.324;21.916;2024-02-23T00:56:16;72.0;;;56.0;;
53939;SDS011;39850;43.324;21.916;2024-02-23T01:00:52;72.0;;;56.0;;
53939;SDS011;39850;43.324;21.916;2024-02-23T01:05:28;66.0;;;52.0;;
53939;SDS011;39850;43.324;21.916;2024-02-23T01:10:07;66.0;;;52.0;;
53939;SDS011;39850;43.324;21.916;2024-02-23T01:14:44;54.0;;;44.0;;
53939;SDS011;39850;43.324;21.916;2024-02-23T01:19:21;54.0;;;44.0;;
53939;SDS011;39850;43.324;21.916;2024-02-23T01:56:17;14.0;;;12.0;;
53939;SDS011;39850;43.324;21.916;2024-02-23T02:00:53;14.0;;;12.0;;
53939;SDS011;39850;43.324;21.916;2024-02-23T02:05:30;16.0;;;14.0;;
53939;SDS011;39850;43.324;21.916;2024-02-23T02:10:10;16.0;;;14.0;;
53939;SDS011;39850;43.324;21.916;2024-02-23T02:14:46;17.0;;;15.0;;
53939;SDS011;39850;43.324;21.916;2024-02-23T02:19:22;17.0;;;15.0;;
53939;SDS011;39850;43.324;21.916;2024-02-23T02:24:00;20.0;;;18.0;;
53939;SDS011;39850;43.324;21.916;2024-02-23T02:28:36;20.0;;;18.0;;
53939;SDS011;39850;43.324;21.916;2024-02-23T02:33:13;20.0;;;18.0;;
53939;SDS011;39850;43.324;21.916;2024-02-23T02:37:49;22.0;;;20.0;;
53939;SDS011;39850;43.324;21.916;2024-02-23T02:42:25;22.0;;;20.0;;
53939;SDS011;39850;43.324;21.916;2024-02-23T03:14:44;28.0;;;22.0;;
53939;SDS011;39850;43.324;21.916;2024-02-23T03:19:20;28.0;;;22.0;;
53939;SDS011;39850;43.324;21.916;2024-02-23T03:23:56;28.0;;;22.0;;
53939;SDS011;39850;43.324;21.916;2024-02-23T03:28:32;28.0;;;22.0;;
53939;SDS011;39850;43.324;21.916;2024-02-23T03:33:08;28.0;;;22.0;;
53939;SDS011;39850;43.324;21.916;2024-02-23T03:37:44;22.0;;;18.0;;
53939;SDS011;39850;43.324;21.916;2024-02-23T03:42:20;22.0;;;18.0;;
53939;SDS011;39850;43.324;21.916;2024-02-23T03:46:56;16.0;;;14.0;;
53939;SDS011;39850;43.324;21.916;2024-02-23T03:51:33;16.0;;;14.0;;
53939;SDS011;39850;43.324;21.916;2024-02-23T03:56:09;16.0;;;14.0;;
53939;SDS011;39850;43.324;21.916;2024-02-23T04:00:45;16.0;;;14.0;;
53939;SDS011;39850;43.324;21.916;2024-02-23T04:37:36;11.0;;;11.0;;
53939;SDS011;39850;43.324;21.916;2024-02-23T04:42:13;11.0;;;11.0;;
53939;SDS011;39850;43.324;21.916;2024-02-23T04:46:49;11.0;;;11.0;;
53939;SDS011;39850;43.324;21.916;2024-02-23T04:51:25;11.0;;;11.0;;
53939;SDS011;39850;43.324;21.916;2024-02-23T04:56:03;11.0;;;11.0;;
53939;SDS011;39850;43.324;21.916;2024-02-23T05:00:40;11.0;;;11.0;;
53939;SDS011;39850;43.324;21.916;2024-02-23T05:05:16;15.0;;;13.0;;
53939;SDS011;39850;43.324;21.916;2024-02-23T05:09:53;15.0;;;13.0;;
53939;SDS011;39850;43.324;21.916;2024-02-23T05:14:29;19.0;;;15.0;;
53939;SDS011;39850;43.324;21.916;2024-02-23T05:19:05;19.0;;;15.0;;
53939;SDS011;39850;43.324;21.916;2024-02-23T05:23:41;19.0;;;15.0;;
53939;SDS011;39850;43.324;21.916;2024-02-23T05:55:55;26.0;;;23.0;;
53939;SDS011;39850;43.324;21.916;2024-02-23T06:00:32;26.0;;;23.0;;
53939;SDS011;39850;43.324;21.916;2024-02-23T06:05:08;25.0;;;22.0;;
53939;SDS011;39850;43.324;21.916;2024-02-23T06:09:44;25.0;;;22.0;;
53939;SDS011;39850;43.324;21.916;2024-02-23T06:14:21;24.0;;;21.0;;
53939;SDS011;39850;43.324;21.916;2024-02-23T06:18:57;24.0;;;21.0;;
53939;SDS011;39850;43.324;21.916;2024-02-23T06:23:33;24.0;;;21.0;;
53939;SDS011;39850;43.324;21.916;2024-02-23T06:28:10;22.0;;;19.0;;
53939;SDS011;39850;43.324;21.916;2024-02-23T06:32:46;22.0;;;19.0;;
53939;SDS011;39850;43.324;21.916;2024-02-23T06:37:23;21.0;;;17.0;;
53939;SDS011;39850;43.324;21.916;2024-02-23T06:41:59;21.0;;;17.0;;
53939;SDS011;39850;43.324;21.916;2024-02-23T07:18:52;29.0;;;21.0;;
53939;SDS011;39850;43.324;21.916;2024-02-23T07:23:28;29.0;;;21.0;;
53939;SDS011;39850;43.324;21.916;2024-02-23T07:28:06;27.0;;;20.0;;
53939;SDS011;39850;43.324;21.916;2024-02-23T07:32:43;27.0;;;20.0;;
53939;SDS011;39850;43.324;21.916;2024-02-23T07:37:19;25.0;;;20.0;;
53939;SDS011;39850;43.324;21.916;2024-02-23T07:41:55;25.0;;;20.0;;
53939;SDS011;39850;43.324;21.916;2024-02-23T07:46:31;20.0;;;15.0;;
53939;SDS011;39850;43.324;21.916;2024-02-23T07:51:08;20.0;;;15.0;;
53939;SDS011;39850;43.324;21.916;2024-02-23T07:55:44;14.0;;;10.0;;
53939;SDS011;39850;43.324;21.916;2024-02-23T08:00:20;14.0;;;10.0;;
53939;SDS011;39850;43.324;21.916;2024-02-23T08:37:09;10.0;;;9.0;;
53939;SDS011;39850;43.324;21.916;2024-02-23T08:41:45;10.0;;;9.0;;
53939;SDS011;39850;43.324;21.916;2024-02-23T08:46:22;10.0;;;9.0;;
53939;SDS011;39850;43.324;21.916;2024-02-23T08:50:58;10.0;;;9.0;;
53939;SDS011;39850;43.324;21.916;2024-02-23T08:55:35;10.0;;;9.0;;
53939;SDS011;39850;43.324;21.916;2024-02-23T09:00:14;10.0;;;9.0;;
53939;SDS011;39850;43.324;21.916;2024-02-23T09:04:51;10.0;;;8.0;;
53939;SDS011;39850;43.324;21.916;2024-02-23T09:09:28;10.0;;;8.0;;
53939;SDS011;39850;43.324;21.916;2024-02-23T09:14:05;10.0;;;8.0;;
53939;SDS011;39850;43.324;21.916;2024-02-23T09:18:41;9.0;;;8.0;;
53939;SDS011;39850;43.324;21.916;2024-02-23T09:23:18;9.0;;;8.0;;
53939;SDS011;39850;43.324;21.916;2024-02-23T09:55:45;9.0;;;8.0;;
53939;SDS011;39850;43.324;21.916;2024-02-23T10:00:24;9.0;;;8.0;;
53939;SDS011;39850;43.324;21.916;2024-02-23T10:05:03;10.0;;;8.0;;
53939;SDS011;39850;43.324;21.916;2024-02-23T10:09:46;10.0;;;8.0;;
53939;SDS011;39850;43.324;21.916;2024-02-23T10:14:23;10.0;;;8.0;;
53939;SDS011;39850;43.324;21.916;2024-02-23T10:18:59;10.0;;;8.0;;
53939;SDS011;39850;43.324;21.916;2024-02-23T10:23:36;10.0;;;8.0;;
53939;SDS011;39850;43.324;21.916;2024-02-23T10:28:13;10.0;;;8.0;;
53939;SDS011;39850;43.324;21.916;2024-02-23T10:32:58;10.0;;;8.0;;
53939;SDS011;39850;43.324;21.916;2024-02-23T10:37:36;10.0;;;8.0;;
53939;SDS011;39850;43.324;21.916;2024-02-23T10:42:16;10.0;;;8.0;;
53939;SDS011;39850;43.324;21.916;2024-02-23T11:19:39;9.0;;;8.0;;
53939;SDS011;39850;43.324;21.916;2024-02-23T11:24:16;9.0;;;8.0;;
53939;SDS011;39850;43.324;21.916;2024-02-23T11:28:53;9.0;;;8.0;;
53939;SDS011;39850;43.324;21.916;2024-02-23T11:33:35;9.0;;;8.0;;
53939;SDS011;39850;43.324;21.916;2024-02-23T11:38:14;9.0;;;8.0;;
53939;SDS011;39850;43.324;21.916;2024-02-23T11:42:55;9.0;;;8.0;;
53939;SDS011;39850;43.324;21.916;2024-02-23T11:47:31;9.0;;;8.0;;
53939;SDS011;39850;43.324;21.916;2024-02-23T11:52:09;9.0;;;8.0;;
53939;SDS011;39850;43.324;21.916;2024-02-23T11:56:47;9.0;;;8.0;;
53939;SDS011;39850;43.324;21.916;2024-02-23T12:01:24;9.0;;;8.0;;
53939;SDS011;39850;43.324;21.916;2024-02-23T12:38:24;9.0;;;8.0;;
53939;SDS011;39850;43.324;21.916;2024-02-23T12:43:00;9.0;;;8.0;;
53939;SDS011;39850;43.324;21.916;2024-02-23T12:47:37;9.0;;;8.0;;
53939;SDS011;39850;43.324;21.916;2024-02-23T12:52:14;9.0;;;8.0;;
53939;SDS011;39850;43.324;21.916;2024-02-23T12:56:51;9.0;;;7.0;;
53939;SDS011;39850;43.324;21.916;2024-02-23T13:01:27;9.0;;;7.0;;
53939;SDS011;39850;43.324;21.916;2024-02-23T13:06:05;8.0;;;7.0;;
53939;SDS011;39850;43.324;21.916;2024-02-23T13:10:43;8.0;;;7.0;;
53939;SDS011;39850;43.324;21.916;2024-02-23T13:15:20;8.0;;;7.0;;
53939;SDS011;39850;43.324;21.916;2024-02-23T13:19:56;8.0;;;7.0;;
53939;SDS011;39850;43.324;21.916;2024-02-23T13:24:32;8.0;;;7.0;;
53939;SDS011;39850;43.324;21.916;2024-02-23T13:56:46;9.0;;;8.0;;
53939;SDS011;39850;43.324;21.916;2024-02-23T14:01:23;9.0;;;8.0;;
53939;SDS011;39850;43.324;21.916;2024-02-23T14:05:59;9.0;;;8.0;;
53939;SDS011;39850;43.324;21.916;2024-02-23T14:10:35;9.0;;;8.0;;
53939;SDS011;39850;43.324;21.916;2024-02-23T14:15:11;9.0;;;8.0;;
53939;SDS011;39850;43.324;21.916;2024-02-23T14:19:47;9.0;;;8.0;;
53939;SDS011;39850;43.324;21.916;2024-02-23T14:24:23;9.0;;;8.0;;
53939;SDS011;39850;43.324;21.916;2024-02-23T14:29:00;10.0;;;8.0;;
53939;SDS011;39850;43.324;21.916;2024-02-23T14:33:36;10.0;;;8.0;;
53939;SDS011;39850;43.324;21.916;2024-02-23T14:38:13;10.0;;;9.0;;
53939;SDS011;39850;43.324;21.916;2024-02-23T14:42:51;10.0;;;9.0;;
53939;SDS011;39850;43.324;21.916;2024-02-23T15:19:45;9.0;;;8.0;;
53939;SDS011;39850;43.324;21.916;2024-02-23T15:24:21;9.0;;;8.0;;
53939;SDS011;39850;43.324;21.916;2024-02-23T15:28:58;10.0;;;8.0;;
53939;SDS011;39850;43.324;21.916;2024-02-23T15:33:35;10.0;;;8.0;;
53939;SDS011;39850;43.324;21.916;2024-02-23T15:38:12;10.0;;;8.0;;
53939;SDS011;39850;43.324;21.916;2024-02-23T15:42:49;10.0;;;8.0;;
53939;SDS011;39850;43.324;21.916;2024-02-23T15:47:25;10.0;;;8.0;;
53939;SDS011;39850;43.324;21.916;2024-02-23T15:52:04;10.0;;;8.0;;
53939;SDS011;39850;43.324;21.916;2024-02-23T15:56:41;10.0;;;9.0;;
53939;SDS011;39850;43.324;21.916;2024-02-23T16:01:21;10.0;;;9.0;;
53939;SDS011;39850;43.324;21.916;2024-02-23T16:05:57;10.0;;;9.0;;
53939;SDS011;39850;43.324;21.916;2024-02-23T16:38:11;13.0;;;11.0;;
53939;SDS011;39850;43.324;21.916;2024-02-23T16:42:47;13.0;;;11.0;;
53939;SDS011;39850;43.324;21.916;2024-02-23T16:47:24;14.0;;;12.0;;
53939;SDS011;39850;43.324;21.916;2024-02-23T16:52:00;14.0;;;12.0;;
53939;SDS011;39850;43.324;21.916;2024-02-23T16:56:36;15.0;;;12.0;;
53939;SDS011;39850;43.324;21.916;2024-02-23T17:01:12;15.0;;;12.0;;
53939;SDS011;39850;43.324;21.916;2024-02-23T17:05:49;15.0;;;12.0;;
53939;SDS011;39850;43.324;21.916;2024-02-23T17:10:25;15.0;;;12.0;;
53939;SDS011;39850;43.324;21.916;2024-02-23T17:15:04;15.0;;;12.0;;
53939;SDS011;39850;43.324;21.916;2024-02-23T17:19:42;15.0;;;13.0;;
53939;SDS011;39850;43.324;21.916;2024-02-23T17:24:18;15.0;;;13.0;;
53939;SDS011;39850;43.324;21.916;2024-02-23T18:01:09;16.0;;;14.0;;
53939;SDS011;39850;43.324;21.916;2024-02-23T18:05:46;16.0;;;14.0;;
53939;SDS011;39850;43.324;21.916;2024-02-23T18:10:23;15.0;;;13.0;;
53939;SDS011;39850;43.324;21.916;2024-02-23T18:14:59;15.0;;;13.0;;
53939;SDS011;39850;43.324;21.916;2024-02-23T18:19:36;16.0;;;14.0;;
53939;SDS011;39850;43.324;21.916;2024-02-23T18:24:12;16.0;;;14.0;;
53939;SDS011;39850;43.324;21.916;2024-02-23T18:28:49;16.0;;;13.0;;
53939;SDS011;39850;43.324;21.916;2024-02-23T18:33:25;16.0;;;13.0;;
53939;SDS011;39850;43.324;21.916;2024-02-23T18:38:01;17.0;;;14.0;;
53939;SDS011;39850;43.324;21.916;2024-02-23T18:42:37;17.0;;;14.0;;
53939;SDS011;39850;43.324;21.916;2024-02-23T19:19:26;12.0;;;10.0;;
53939;SDS011;39850;43.324;21.916;2024-02-23T19:24:01;12.0;;;10.0;;
53939;SDS011;39850;43.324;21.916;2024-02-23T19:28:37;13.0;;;11.0;;
53939;SDS011;39850;43.324;21.916;2024-02-23T19:33:14;13.0;;;11.0;;
53939;SDS011;39850;43.324;21.916;2024-02-23T19:37:50;14.0;;;12.0;;
53939;SDS011;39850;43.324;21.916;2024-02-23T19:42:26;14.0;;;12.0;;
53939;SDS011;39850;43.324;21.916;2024-02-23T19:47:03;18.0;;;15.0;;
53939;SDS011;39850;43.324;21.916;2024-02-23T19:51:39;18.0;;;15.0;;
53939;SDS011;39850;43.324;21.916;2024-02-23T19:56:15;18.0;;;15.0;;
53939;SDS011;39850;43.324;21.916;2024-02-23T20:00:52;21.0;;;18.0;;
53939;SDS011;39850;43.324;21.916;2024-02-23T20:05:28;21.0;;;18.0;;
53939;SDS011;39850;43.324;21.916;2024-02-23T20:37:46;13.0;;;12.0;;
53939;SDS011;39850;43.324;21.916;2024-02-23T20:42:22;13.0;;;12.0;;
53939;SDS011;39850;43.324;21.916;2024-02-23T20:46:58;13.0;;;12.0;;
53939;SDS011;39850;43.324;21.916;2024-02-23T20:51:35;14.0;;;12.0;;
53939;SDS011;39850;43.324;21.916;2024-02-23T20:56:13;14.0;;;12.0;;
53939;SDS011;39850;43.324;21.916;2024-02-23T21:00:50;13.0;;;12.0;;
53939;SDS011;39850;43.324;21.916;2024-02-23T21:05:27;13.0;;;12.0;;
53939;SDS011;39850;43.324;21.916;2024-02-23T21:10:05;13.0;;;12.0;;
53939;SDS011;39850;43.324;21.916;2024-02-23T21:14:43;13.0;;;12.0;;
53939;SDS011;39850;43.324;21.916;2024-02-23T21:19:19;12.0;;;11.0;;
53939;SDS011;39850;43.324;21.916;2024-02-23T21:23:55;12.0;;;11.0;;
53939;SDS011;39850;43.324;21.916;2024-02-23T22:00:42;13.0;;;12.0;;
53939;SDS011;39850;43.324;21.916;2024-02-23T22:05:19;13.0;;;12.0;;
53939;SDS011;39850;43.324;21.916;2024-02-23T22:09:55;19.0;;;17.0;;
53939;SDS011;39850;43.324;21.916;2024-02-23T22:14:31;19.0;;;17.0;;
53939;SDS011;39850;43.324;21.916;2024-02-23T22:19:08;25.0;;;21.0;;
53939;SDS011;39850;43.324;21.916;2024-02-23T22:23:44;25.0;;;21.0;;
53939;SDS011;39850;43.324;21.916;2024-02-23T22:28:21;25.0;;;22.0;;
53939;SDS011;39850;43.324;21.916;2024-02-23T22:32:57;25.0;;;22.0;;
53939;SDS011;39850;43.324;21.916;2024-02-23T22:37:34;25.0;;;21.0;;
53939;SDS011;39850;43.324;21.916;2024-02-23T22:42:11;25.0;;;21.0;;
53939;SDS011;39850;43.324;21.916;2024-02-23T22:46:47;25.0;;;21.0;;
53939;SDS011;39850;43.324;21.916;2024-02-23T23:19:01;16.0;;;15.0;;
53939;SDS011;39850;43.324;21.916;2024-02-23T23:23:37;16.0;;;15.0;;
53939;SDS011;39850;43.324;21.916;2024-02-23T23:28:13;16.0;;;14.0;;
53939;SDS011;39850;43.324;21.916;2024-02-23T23:32:50;16.0;;;14.0;;
53939;SDS011;39850;43.324;21.916;2024-02-23T23:37:26;16.0;;;14.0;;
53939;SDS011;39850;43.324;21.916;2024-02-23T23:42:03;16.0;;;15.0;;
53939;SDS011;39850;43.324;21.916;2024-02-23T23:46:40;16.0;;;15.0;;
53939;SDS011;39850;43.324;21.916;2024-02-23T23:51:17;20.0;;;17.0;;
53939;SDS011;39850;43.324;21.916;2024-02-23T23:55:53;20.0;;;17.0;;
